Time;durP1;ratioP1;P1;durP2;ratioP2;P2;SDS_P1;SDS_P2;PMS_P1;PMS_P2;Temp;Humidity;BMP_temperature;BMP_pressure;BME280_temperature;BME280_humidity;BME280_pressure;Samples;Min_cycle;Max_cycle;Signal;HPM_P1;HPM_P2
2023/10/25 00:01:15;;;;;;;19.63;6.63;;;;;;;;;;5070029;28;20216;-77
2023/10/25 00:03:42;;;;;;;11.10;6.53;;;;;;;;;;5071420;28;20211;-77
2023/10/25 00:06:09;;;;;;;13.10;6.30;;;;;;;;;;5064746;28;20200;-77
2023/10/25 00:08:37;;;;;;;10.70;6.50;;;;;;;;;;5064022;28;20637;-78
2023/10/25 00:11:05;;;;;;;16.63;6.73;;;;;;;;;;5071296;28;20204;-78
2023/10/25 00:13:32;;;;;;;15.77;7.23;;;;;;;;;;5070570;28;20208;-78
2023/10/25 00:15:59;;;;;;;11.43;6.00;;;;;;;;;;5071089;28;20643;-78
2023/10/25 00:18:26;;;;;;;19.97;6.97;;;;;;;;;;5070697;28;20235;-78
2023/10/25 00:20:53;;;;;;;22.23;7.13;;;;;;;;;;5071061;28;20210;-78
2023/10/25 00:23:20;;;;;;;15.33;7.00;;;;;;;;;;5070240;28;20240;-78
2023/10/25 00:25:49;;;;;;;16.43;7.23;;;;;;;;;;5071278;28;20591;-78
2023/10/25 00:28:16;;;;;;;24.10;7.17;;;;;;;;;;5070234;28;20205;-78
2023/10/25 00:30:43;;;;;;;14.37;6.80;;;;;;;;;;5070509;28;20200;-78
2023/10/25 00:33:10;;;;;;;11.77;6.43;;;;;;;;;;5070609;28;20231;-78
2023/10/25 00:35:37;;;;;;;15.63;7.10;;;;;;;;;;5070582;28;20622;-77
2023/10/25 00:38:04;;;;;;;14.13;6.73;;;;;;;;;;5069620;28;20264;-78
2023/10/25 00:40:31;;;;;;;18.90;7.87;;;;;;;;;;5070728;28;20227;-78
2023/10/25 00:43:14;;;;;;;15.20;7.60;;;;;;;;;;5070568;28;20213;-78
2023/10/25 00:45:57;;;;;;;10.07;7.70;;;;;;;;;;5070244;28;20211;-77
2023/10/25 00:48:25;;;;;;;15.20;7.30;;;;;;;;;;5044442;28;20291;-78
2023/10/25 00:50:53;;;;;;;14.03;6.90;;;;;;;;;;5070724;28;20692;-78
2023/10/25 00:53:19;;;;;;;10.40;6.77;;;;;;;;;;5044565;28;20292;-78
2023/10/25 00:55:47;;;;;;;17.20;7.03;;;;;;;;;;5070872;28;20204;-78
2023/10/25 00:58:15;;;;;;;20.27;6.97;;;;;;;;;;5069605;28;20293;-78
2023/10/25 01:00:42;;;;;;;14.27;7.10;;;;;;;;;;5069993;28;20212;-78
2023/10/25 01:03:09;;;;;;;11.20;6.33;;;;;;;;;;5069826;28;20648;-78
2023/10/25 01:05:35;;;;;;;19.40;8.87;;;;;;;;;;5070495;28;20205;-78
2023/10/25 01:08:02;;;;;;;12.20;6.60;;;;;;;;;;5070188;28;20212;-78
2023/10/25 01:10:29;;;;;;;13.03;7.23;;;;;;;;;;5069718;28;20638;-78
2023/10/25 01:12:56;;;;;;;18.40;7.40;;;;;;;;;;5073649;28;20203;-78
2023/10/25 01:15:24;;;;;;;16.60;7.97;;;;;;;;;;5072833;28;20685;-78
2023/10/25 01:17:51;;;;;;;14.83;7.43;;;;;;;;;;5063150;28;20227;-78
2023/10/25 01:20:19;;;;;;;16.70;6.50;;;;;;;;;;5074365;28;20206;-77
2023/10/25 01:22:47;;;;;;;12.50;7.80;;;;;;;;;;5074034;28;20691;-77
2023/10/25 01:25:14;;;;;;;15.63;6.60;;;;;;;;;;5073363;28;20621;-78
2023/10/25 01:27:41;;;;;;;8.57;6.27;;;;;;;;;;5074361;28;20258;-78
2023/10/25 01:30:09;;;;;;;10.63;6.80;;;;;;;;;;5074031;28;20291;-77
2023/10/25 01:32:36;;;;;;;17.20;7.10;;;;;;;;;;5074644;28;20281;-77
2023/10/25 01:35:03;;;;;;;11.43;5.73;;;;;;;;;;5073755;28;20204;-78
2023/10/25 01:37:29;;;;;;;13.50;6.87;;;;;;;;;;5073426;28;20203;-78
2023/10/25 01:39:58;;;;;;;20.93;7.67;;;;;;;;;;5073616;28;20224;-78
2023/10/25 01:42:25;;;;;;;11.93;6.80;;;;;;;;;;5073675;28;20214;-78
2023/10/25 01:44:51;;;;;;;15.10;6.40;;;;;;;;;;5073672;28;20203;-77
2023/10/25 01:47:18;;;;;;;13.03;7.03;;;;;;;;;;5074008;28;20666;-78
2023/10/25 01:49:45;;;;;;;17.47;6.70;;;;;;;;;;5073550;28;20231;-77
2023/10/25 01:52:12;;;;;;;11.73;7.50;;;;;;;;;;5073434;28;20212;-78
2023/10/25 01:54:40;;;;;;;21.20;8.00;;;;;;;;;;5073378;28;20204;-78
2023/10/25 01:57:08;;;;;;;12.87;6.77;;;;;;;;;;5073559;28;20215;-78
2023/10/25 01:59:35;;;;;;;12.40;6.97;;;;;;;;;;5073006;28;20236;-77
2023/10/25 02:02:01;;;;;;;16.20;7.77;;;;;;;;;;5074040;28;20623;-77
2023/10/25 02:04:28;;;;;;;13.40;6.93;;;;;;;;;;5073688;28;20678;-77
2023/10/25 02:06:55;;;;;;;15.60;7.50;;;;;;;;;;5074079;28;20210;-78
2023/10/25 02:09:22;;;;;;;14.93;7.30;;;;;;;;;;5073627;28;20211;-77
2023/10/25 02:11:49;;;;;;;15.67;7.53;;;;;;;;;;5073051;28;20236;-77
2023/10/25 02:14:17;;;;;;;10.77;7.87;;;;;;;;;;5072860;28;20204;-77
2023/10/25 02:16:44;;;;;;;12.97;6.63;;;;;;;;;;5073153;28;20217;-77
2023/10/25 02:19:11;;;;;;;15.63;8.43;;;;;;;;;;5072759;28;20588;-77
2023/10/25 02:21:38;;;;;;;16.43;8.07;;;;;;;;;;5072655;28;20595;-77
2023/10/25 02:24:05;;;;;;;11.13;6.67;;;;;;;;;;5045782;28;20208;-77
2023/10/25 02:26:33;;;;;;;13.40;7.30;;;;;;;;;;5072989;28;20211;-77
2023/10/25 02:29:00;;;;;;;10.10;6.80;;;;;;;;;;5073381;28;20206;-77
2023/10/25 02:31:28;;;;;;;16.20;7.20;;;;;;;;;;5071995;28;20216;-77
2023/10/25 02:33:55;;;;;;;9.40;7.07;;;;;;;;;;5072871;28;20215;-77
2023/10/25 02:36:22;;;;;;;17.73;6.93;;;;;;;;;;5072464;28;20212;-77
2023/10/25 02:38:49;;;;;;;17.63;7.87;;;;;;;;;;5072743;28;20235;-77
2023/10/25 02:41:16;;;;;;;12.47;7.80;;;;;;;;;;5072428;28;20215;-77
2023/10/25 02:43:43;;;;;;;17.67;8.27;;;;;;;;;;5073076;28;20207;-77
2023/10/25 02:46:11;;;;;;;12.03;6.63;;;;;;;;;;5072335;28;20208;-77
2023/10/25 02:48:39;;;;;;;13.00;7.47;;;;;;;;;;5072577;28;20215;-77
2023/10/25 02:51:07;;;;;;;16.73;6.83;;;;;;;;;;5072578;28;20231;-77
2023/10/25 02:53:33;;;;;;;15.60;7.37;;;;;;;;;;5072466;28;20211;-77
2023/10/25 02:56:00;;;;;;;13.40;8.70;;;;;;;;;;5072604;28;20203;-77
2023/10/25 02:58:27;;;;;;;16.13;7.93;;;;;;;;;;5072484;28;20691;-77
2023/10/25 03:00:56;;;;;;;13.60;7.40;;;;;;;;;;5072514;28;20215;-77
2023/10/25 03:03:22;;;;;;;18.00;7.57;;;;;;;;;;5072799;28;20207;-77
2023/10/25 03:05:51;;;;;;;16.53;8.47;;;;;;;;;;5072413;28;20208;-77
2023/10/25 03:08:17;;;;;;;14.10;8.17;;;;;;;;;;5066410;28;20211;-78
2023/10/25 03:10:44;;;;;;;12.83;6.70;;;;;;;;;;5069873;28;20208;-77
2023/10/25 03:13:11;;;;;;;10.13;7.37;;;;;;;;;;5064876;28;20200;-77
2023/10/25 03:15:38;;;;;;;10.60;8.27;;;;;;;;;;5065194;28;20216;-77
2023/10/25 03:18:05;;;;;;;15.77;7.83;;;;;;;;;;5061684;28;20203;-77
2023/10/25 03:20:33;;;;;;;16.57;8.60;;;;;;;;;;5064542;28;20211;-77
2023/10/25 03:23:01;;;;;;;18.00;9.03;;;;;;;;;;5065832;28;20207;-78
2023/10/25 03:25:28;;;;;;;18.40;9.10;;;;;;;;;;5061692;28;20302;-77
2023/10/25 03:27:55;;;;;;;15.90;8.57;;;;;;;;;;5066358;28;20556;-77
2023/10/25 03:30:22;;;;;;;14.77;7.83;;;;;;;;;;5071914;28;20246;-77
2023/10/25 03:32:49;;;;;;;17.40;9.83;;;;;;;;;;5071141;28;20207;-77
2023/10/25 03:35:16;;;;;;;17.07;8.47;;;;;;;;;;5071654;28;20205;-77
2023/10/25 03:37:43;;;;;;;12.60;8.93;;;;;;;;;;5071850;28;20243;-77
2023/10/25 03:40:12;;;;;;;12.70;8.37;;;;;;;;;;5070807;28;20226;-77
2023/10/25 03:42:39;;;;;;;17.37;8.37;;;;;;;;;;5070750;28;20198;-77
2023/10/25 03:45:07;;;;;;;20.83;13.10;;;;;;;;;;5054792;28;20198;-77
2023/10/25 03:47:34;;;;;;;20.47;10.87;;;;;;;;;;5048829;28;20215;-80
2023/10/25 03:50:02;;;;;;;27.67;11.83;;;;;;;;;;5070492;28;20276;-79
2023/10/25 03:52:29;;;;;;;20.47;9.67;;;;;;;;;;5064917;28;20208;-78
2023/10/25 03:54:56;;;;;;;24.93;8.87;;;;;;;;;;5062525;28;20198;-78
2023/10/25 03:57:26;;;;;;;18.03;10.00;;;;;;;;;;5051460;28;20206;-78
2023/10/25 03:59:55;;;;;;;17.50;9.40;;;;;;;;;;5062221;28;20231;-78
2023/10/25 04:02:22;;;;;;;16.10;10.70;;;;;;;;;;5056240;28;20258;-78
2023/10/25 04:04:49;;;;;;;12.83;8.47;;;;;;;;;;5064391;28;20206;-78
2023/10/25 04:07:15;;;;;;;15.20;9.70;;;;;;;;;;5070063;28;20211;-77
2023/10/25 04:09:42;;;;;;;17.93;9.50;;;;;;;;;;5067869;28;20690;-74
2023/10/25 04:12:12;;;;;;;17.80;9.87;;;;;;;;;;5057043;28;20204;-77
2023/10/25 04:14:44;;;;;;;16.30;9.83;;;;;;;;;;5070969;28;20302;-77
2023/10/25 04:17:11;;;;;;;17.23;9.27;;;;;;;;;;5070607;28;20196;-78
2023/10/25 04:19:37;;;;;;;15.30;9.23;;;;;;;;;;5071178;28;20230;-78
2023/10/25 04:22:05;;;;;;;16.70;10.33;;;;;;;;;;5070268;28;20206;-77
2023/10/25 04:24:32;;;;;;;18.53;9.97;;;;;;;;;;5070740;28;20212;-78
2023/10/25 04:27:00;;;;;;;15.90;10.20;;;;;;;;;;5070256;28;20197;-78
2023/10/25 04:29:27;;;;;;;22.13;12.97;;;;;;;;;;5070367;28;20594;-79
2023/10/25 04:31:56;;;;;;;26.83;12.17;;;;;;;;;;5062425;28;20195;-78
2023/10/25 04:34:23;;;;;;;21.33;12.63;;;;;;;;;;5052475;28;20674;-78
2023/10/25 04:36:49;;;;;;;14.97;11.10;;;;;;;;;;5054472;28;20213;-78
2023/10/25 04:39:16;;;;;;;17.33;10.17;;;;;;;;;;5053144;28;20227;-78
2023/10/25 04:41:43;;;;;;;12.83;9.23;;;;;;;;;;5053423;28;20698;-78
2023/10/25 04:44:10;;;;;;;16.67;10.63;;;;;;;;;;5053713;28;20203;-78
2023/10/25 04:46:37;;;;;;;30.73;14.20;;;;;;;;;;5056263;28;20209;-77
2023/10/25 04:49:05;;;;;;;22.00;11.83;;;;;;;;;;5054354;28;20681;-77
2023/10/25 04:51:32;;;;;;;14.30;9.90;;;;;;;;;;5068265;28;20230;-76
2023/10/25 04:53:59;;;;;;;17.50;10.00;;;;;;;;;;5065629;28;20642;-76
2023/10/25 04:56:26;;;;;;;18.77;11.50;;;;;;;;;;5064076;28;20693;-76
2023/10/25 04:58:52;;;;;;;16.97;10.40;;;;;;;;;;5045893;28;20300;-76
2023/10/25 05:01:20;;;;;;;17.33;9.10;;;;;;;;;;5053053;28;20209;-80
2023/10/25 05:03:46;;;;;;;16.40;10.00;;;;;;;;;;5065013;28;20202;-78
2023/10/25 05:06:15;;;;;;;18.87;12.10;;;;;;;;;;5069824;28;20206;-76
2023/10/25 05:08:43;;;;;;;14.40;10.13;;;;;;;;;;5069752;28;20213;-76
2023/10/25 05:11:13;;;;;;;21.13;12.03;;;;;;;;;;5070536;28;20328;-75
2023/10/25 05:13:40;;;;;;;19.30;12.13;;;;;;;;;;5069779;28;20215;-75
2023/10/25 05:16:08;;;;;;;14.97;10.27;;;;;;;;;;5070404;28;20289;-76
2023/10/25 05:18:35;;;;;;;64.40;35.10;;;;;;;;;;5070013;28;20208;-78
2023/10/25 05:21:03;;;;;;;23.00;14.37;;;;;;;;;;5070260;28;20228;-76
2023/10/25 05:23:33;;;;;;;20.57;12.43;;;;;;;;;;5069897;28;20197;-76
2023/10/25 05:26:01;;;;;;;22.03;12.17;;;;;;;;;;5069775;28;20201;-75
2023/10/25 05:28:29;;;;;;;53.43;29.63;;;;;;;;;;5069322;28;20197;-75
2023/10/25 05:30:56;;;;;;;102.90;61.17;;;;;;;;;;5070273;28;20214;-76
2023/10/25 05:33:24;;;;;;;109.33;63.10;;;;;;;;;;5069273;28;20193;-76
2023/10/25 05:35:51;;;;;;;28.57;18.20;;;;;;;;;;5069691;28;20205;-77
2023/10/25 05:38:19;;;;;;;34.03;20.27;;;;;;;;;;5069881;28;20198;-74
2023/10/25 05:40:48;;;;;;;24.80;14.97;;;;;;;;;;5069894;28;20225;-74
2023/10/25 05:43:16;;;;;;;23.27;13.77;;;;;;;;;;5069593;28;20292;-74
2023/10/25 05:45:43;;;;;;;24.43;11.70;;;;;;;;;;5069562;28;20640;-74
2023/10/25 05:48:15;;;;;;;19.30;11.67;;;;;;;;;;5044966;28;20208;-74
2023/10/25 05:50:45;;;;;;;20.57;11.53;;;;;;;;;;5070148;28;20236;-74
2023/10/25 05:53:13;;;;;;;26.73;12.97;;;;;;;;;;5069455;28;20314;-75
2023/10/25 05:55:41;;;;;;;37.47;19.77;;;;;;;;;;5069601;28;20231;-73
2023/10/25 05:58:10;;;;;;;26.00;16.07;;;;;;;;;;5068910;28;20285;-74
2023/10/25 06:00:39;;;;;;;21.07;14.23;;;;;;;;;;5073426;28;20223;-75
2023/10/25 06:03:06;;;;;;;25.90;13.87;;;;;;;;;;5047316;28;20197;-80
2023/10/25 06:05:34;;;;;;;23.30;11.03;;;;;;;;;;5072180;28;20680;-79
2023/10/25 06:08:01;;;;;;;16.63;10.53;;;;;;;;;;5073351;28;20205;-77
2023/10/25 06:10:29;;;;;;;17.50;10.47;;;;;;;;;;5073755;28;20280;-74
2023/10/25 06:12:57;;;;;;;27.47;11.40;;;;;;;;;;5072773;28;20217;-73
2023/10/25 06:15:26;;;;;;;21.97;10.80;;;;;;;;;;5072299;28;20205;-74
2023/10/25 06:17:53;;;;;;;20.10;10.03;;;;;;;;;;5073218;28;20209;-74
2023/10/25 06:20:20;;;;;;;17.80;12.53;;;;;;;;;;5073015;28;20238;-74
2023/10/25 06:22:47;;;;;;;20.63;10.73;;;;;;;;;;5072433;28;20206;-74
2023/10/25 06:25:14;;;;;;;21.60;11.63;;;;;;;;;;5056911;28;20199;-74
2023/10/25 06:27:41;;;;;;;22.37;11.73;;;;;;;;;;5062010;28;20237;-73
2023/10/25 06:30:09;;;;;;;22.77;9.87;;;;;;;;;;5072378;28;20703;-77
2023/10/25 06:32:37;;;;;;;18.30;10.70;;;;;;;;;;5072657;28;20207;-75
2023/10/25 06:35:04;;;;;;;15.57;10.10;;;;;;;;;;5072568;28;20684;-75
2023/10/25 06:37:32;;;;;;;18.40;10.53;;;;;;;;;;5072168;28;20209;-74
2023/10/25 06:40:00;;;;;;;18.50;11.50;;;;;;;;;;5072856;28;20234;-74
2023/10/25 06:42:27;;;;;;;19.07;10.63;;;;;;;;;;5066830;28;20203;-73
2023/10/25 06:44:54;;;;;;;30.67;14.40;;;;;;;;;;5072469;28;20211;-76
2023/10/25 06:47:22;;;;;;;22.33;12.30;;;;;;;;;;5072143;28;20226;-76
2023/10/25 06:49:50;;;;;;;20.13;11.97;;;;;;;;;;5072292;28;20729;-85
2023/10/25 06:52:18;;;;;;;19.77;11.20;;;;;;;;;;5072241;28;20208;-76
2023/10/25 06:54:45;;;;;;;20.40;10.70;;;;;;;;;;5072609;28;20567;-74
2023/10/25 06:57:13;;;;;;;18.60;11.63;;;;;;;;;;5071902;28;20704;-75
2023/10/25 06:59:41;;;;;;;20.53;11.57;;;;;;;;;;5058764;28;20229;-75
2023/10/25 07:02:23;;;;;;;26.00;12.70;;;;;;;;;;5071667;28;20220;-75
2023/10/25 07:04:54;;;;;;;18.13;10.87;;;;;;;;;;5072570;28;20215;-74
2023/10/25 07:07:23;;;;;;;29.37;11.87;;;;;;;;;;5071214;28;20657;-74
2023/10/25 07:09:50;;;;;;;23.47;11.87;;;;;;;;;;5072052;28;20216;-74
2023/10/25 07:12:17;;;;;;;22.60;12.93;;;;;;;;;;5072072;28;20205;-77
2023/10/25 07:14:44;;;;;;;16.53;10.20;;;;;;;;;;5072180;28;20210;-75
2023/10/25 07:17:11;;;;;;;20.77;9.13;;;;;;;;;;5069385;28;20222;-75
2023/10/25 07:19:40;;;;;;;18.27;9.70;;;;;;;;;;5060893;28;20199;-76
2023/10/25 07:22:08;;;;;;;18.83;10.03;;;;;;;;;;5071334;28;20195;-75
2023/10/25 07:24:35;;;;;;;18.30;10.23;;;;;;;;;;5071937;28;20205;-75
2023/10/25 07:27:02;;;;;;;21.73;9.97;;;;;;;;;;5071807;28;20699;-74
2023/10/25 07:29:28;;;;;;;21.90;10.90;;;;;;;;;;5071191;28;20678;-73
2023/10/25 07:31:55;;;;;;;24.77;15.13;;;;;;;;;;5071850;28;20215;-74
2023/10/25 07:34:22;;;;;;;52.27;23.47;;;;;;;;;;5060883;28;20598;-74
2023/10/25 07:36:49;;;;;;;46.03;27.40;;;;;;;;;;5062581;28;20199;-74
2023/10/25 07:39:17;;;;;;;40.57;23.13;;;;;;;;;;5071058;28;20220;-74
2023/10/25 07:41:44;;;;;;;61.27;31.03;;;;;;;;;;5070945;28;20234;-81
2023/10/25 07:44:11;;;;;;;62.07;31.03;;;;;;;;;;5071892;28;20199;-81
2023/10/25 07:46:38;;;;;;;31.40;22.10;;;;;;;;;;5071651;28;20212;-74
2023/10/25 07:49:05;;;;;;;82.60;69.43;;;;;;;;;;5070502;28;20196;-74
2023/10/25 07:51:32;;;;;;;31.83;21.00;;;;;;;;;;5070971;28;20315;-76
2023/10/25 07:53:59;;;;;;;20.67;12.00;;;;;;;;;;5071975;28;20588;-76
2023/10/25 07:56:27;;;;;;;38.37;22.97;;;;;;;;;;5070809;28;20210;-77
2023/10/25 07:58:54;;;;;;;26.33;14.13;;;;;;;;;;5070961;28;20228;-75
2023/10/25 08:01:22;;;;;;;15.77;10.67;;;;;;;;;;5070324;28;20262;-75
2023/10/25 08:03:48;;;;;;;31.43;12.40;;;;;;;;;;5071099;28;20679;-74
2023/10/25 08:06:15;;;;;;;23.00;11.23;;;;;;;;;;5058259;28;20198;-77
2023/10/25 08:08:42;;;;;;;23.63;10.53;;;;;;;;;;5070669;28;20208;-81
2023/10/25 08:11:09;;;;;;;18.17;10.33;;;;;;;;;;5064787;28;20204;-78
2023/10/25 08:13:38;;;;;;;28.07;11.23;;;;;;;;;;5066143;28;20201;-78
2023/10/25 08:16:06;;;;;;;15.60;9.90;;;;;;;;;;5063012;28;20257;-78
2023/10/25 08:18:34;;;;;;;18.93;10.17;;;;;;;;;;5066097;28;20208;-79
2023/10/25 08:21:02;;;;;;;21.87;10.53;;;;;;;;;;5063936;28;20236;-76
2023/10/25 08:23:29;;;;;;;23.17;9.53;;;;;;;;;;5070447;28;20205;-75
2023/10/25 08:26:00;;;;;;;18.60;10.40;;;;;;;;;;5062398;28;20204;-74
2023/10/25 08:28:27;;;;;;;22.97;10.07;;;;;;;;;;5070524;28;20287;-79
2023/10/25 08:30:55;;;;;;;18.43;10.07;;;;;;;;;;5070504;28;20201;-77
2023/10/25 08:33:22;;;;;;;22.73;9.40;;;;;;;;;;5066585;28;20304;-75
2023/10/25 08:35:48;;;;;;;15.33;9.43;;;;;;;;;;5064610;28;20589;-76
2023/10/25 08:38:15;;;;;;;22.07;9.50;;;;;;;;;;5069951;28;20201;-77
2023/10/25 08:40:43;;;;;;;22.07;10.87;;;;;;;;;;5069399;28;20213;-76
2023/10/25 08:43:09;;;;;;;25.17;10.43;;;;;;;;;;5070605;28;20197;-79
2023/10/25 08:45:36;;;;;;;17.10;9.47;;;;;;;;;;5070253;28;20642;-78
2023/10/25 08:48:05;;;;;;;16.17;9.17;;;;;;;;;;5069529;28;20583;-78
2023/10/25 08:50:32;;;;;;;18.97;10.50;;;;;;;;;;5069540;28;20229;-76
2023/10/25 08:52:59;;;;;;;22.33;11.13;;;;;;;;;;5068335;28;20582;-76
2023/10/25 08:55:27;;;;;;;21.00;10.50;;;;;;;;;;5070853;28;20203;-76
2023/10/25 08:57:56;;;;;;;23.63;10.10;;;;;;;;;;5070134;28;20223;-76
2023/10/25 09:00:28;;;;;;;20.53;11.50;;;;;;;;;;5070669;28;20231;-74
2023/10/25 09:02:55;;;;;;;23.13;12.00;;;;;;;;;;5070179;28;20197;-75
2023/10/25 09:05:24;;;;;;;25.53;12.30;;;;;;;;;;5069992;28;20211;-74
2023/10/25 09:07:50;;;;;;;32.93;14.13;;;;;;;;;;5070144;28;20224;-75
2023/10/25 09:10:19;;;;;;;21.10;12.20;;;;;;;;;;5070633;28;20201;-78
2023/10/25 09:12:47;;;;;;;25.33;10.10;;;;;;;;;;5069511;28;20208;-76
2023/10/25 09:15:13;;;;;;;16.33;11.77;;;;;;;;;;5070027;28;20208;-75
2023/10/25 09:17:40;;;;;;;17.30;10.47;;;;;;;;;;5069774;28;20201;-74
2023/10/25 09:20:09;;;;;;;18.30;11.07;;;;;;;;;;5070024;28;20201;-76
2023/10/25 09:22:37;;;;;;;23.70;12.17;;;;;;;;;;5069896;28;20584;-76
2023/10/25 09:25:05;;;;;;;16.83;11.73;;;;;;;;;;5070243;28;20291;-75
2023/10/25 09:27:41;;;;;;;25.63;12.87;;;;;;;;;;5066858;28;20206;-76
2023/10/25 09:30:15;;;;;;;23.97;12.80;;;;;;;;;;5064833;28;20205;-93
2023/10/25 09:32:42;;;;;;;23.53;13.67;;;;;;;;;;5052046;28;20209;-82
2023/10/25 09:35:11;;;;;;;20.07;11.67;;;;;;;;;;5070667;28;20200;-83
2023/10/25 09:37:39;;;;;;;21.77;13.17;;;;;;;;;;5074409;28;20197;-82
2023/10/25 09:40:07;;;;;;;19.20;11.57;;;;;;;;;;5073749;28;20200;-83
2023/10/25 09:42:36;;;;;;;17.53;10.47;;;;;;;;;;5073966;28;20687;-81
2023/10/25 09:45:06;;;;;;;17.40;10.33;;;;;;;;;;5073501;28;20197;-77
2023/10/25 09:47:39;;;;;;;24.57;11.00;;;;;;;;;;5073930;28;20211;-84
2023/10/25 09:50:11;;;;;;;21.00;10.40;;;;;;;;;;5073640;28;20257;-82
2023/10/25 09:52:40;;;;;;;19.00;9.40;;;;;;;;;;5073219;28;20205;-76
2023/10/25 09:55:17;;;;;;;19.63;10.40;;;;;;;;;;5073624;28;20726;-77
2023/10/25 09:57:44;;;;;;;17.70;9.97;;;;;;;;;;5068930;28;20205;-79
2023/10/25 10:00:12;;;;;;;16.40;10.00;;;;;;;;;;5065500;28;20193;-79
2023/10/25 10:02:47;;;;;;;24.50;10.70;;;;;;;;;;5064362;28;20304;-79
2023/10/25 10:05:21;;;;;;;17.37;9.53;;;;;;;;;;5062219;28;20198;-78
2023/10/25 10:07:56;;;;;;;19.00;9.10;;;;;;;;;;5062757;28;20209;-78
2023/10/25 10:10:28;;;;;;;12.97;7.63;;;;;;;;;;5067290;28;20213;-78
2023/10/25 10:12:55;;;;;;;16.60;8.90;;;;;;;;;;5066434;28;20755;-78
2023/10/25 10:15:25;;;;;;;21.40;9.27;;;;;;;;;;5060144;28;20711;-79
2023/10/25 10:17:52;;;;;;;19.00;9.67;;;;;;;;;;5062093;28;20596;-79
2023/10/25 10:20:28;;;;;;;22.40;9.90;;;;;;;;;;5059493;28;20598;-79
2023/10/25 10:23:06;;;;;;;16.63;8.87;;;;;;;;;;5062579;28;20204;-79
2023/10/25 10:25:52;;;;;;;20.07;9.40;;;;;;;;;;5060314;28;20208;-78
2023/10/25 10:28:38;;;;;;;14.27;9.40;;;;;;;;;;5061148;28;20198;-75
2023/10/25 10:31:05;;;;;;;13.53;8.13;;;;;;;;;;5054589;28;20247;-77
2023/10/25 10:33:35;;;;;;;19.70;8.07;;;;;;;;;;5066466;28;20198;-76
2023/10/25 10:36:02;;;;;;;13.23;8.43;;;;;;;;;;5064632;28;20266;-76
2023/10/25 10:39:09;;;;;;;13.83;8.23;;;;;;;;;;5055187;28;20210;-75
2023/10/25 10:41:35;;;;;;;15.07;7.90;;;;;;;;;;5060238;28;20730;-75
2023/10/25 10:44:03;;;;;;;16.00;8.27;;;;;;;;;;5070017;28;20205;-76
2023/10/25 10:46:31;;;;;;;20.27;8.20;;;;;;;;;;5069354;28;20209;-77
2023/10/25 10:49:02;;;;;;;21.23;9.40;;;;;;;;;;5065697;28;20576;-76
2023/10/25 10:51:29;;;;;;;14.63;7.50;;;;;;;;;;5067545;28;20324;-77
2023/10/25 10:53:58;;;;;;;18.90;7.53;;;;;;;;;;5054132;28;20202;-79
2023/10/25 10:56:25;;;;;;;15.73;8.10;;;;;;;;;;5057830;28;20255;-79
2023/10/25 10:58:52;;;;;;;16.97;7.60;;;;;;;;;;5071869;28;20205;-76
2023/10/25 11:01:19;;;;;;;15.40;7.50;;;;;;;;;;5072243;28;20613;-78
2023/10/25 11:03:45;;;;;;;16.03;6.77;;;;;;;;;;5072299;28;20635;-78
2023/10/25 11:06:13;;;;;;;15.77;8.33;;;;;;;;;;5071613;28;20204;-77
2023/10/25 11:08:39;;;;;;;13.77;7.63;;;;;;;;;;5062562;28;20205;-79
2023/10/25 11:11:08;;;;;;;13.33;7.23;;;;;;;;;;5057137;28;20210;-77
2023/10/25 11:13:35;;;;;;;20.37;7.63;;;;;;;;;;5063773;28;20201;-81
2023/10/25 11:16:02;;;;;;;14.47;7.60;;;;;;;;;;5062087;28;20212;-83
2023/10/25 11:18:29;;;;;;;19.77;7.17;;;;;;;;;;5071871;28;23033;-82
2023/10/25 11:20:55;;;;;;;15.97;7.27;;;;;;;;;;5071075;28;20709;-83
2023/10/25 11:23:22;;;;;;;21.17;7.73;;;;;;;;;;5066718;28;20210;-77
2023/10/25 11:25:49;;;;;;;16.93;7.47;;;;;;;;;;5068140;28;20721;-82
2023/10/25 11:28:18;;;;;;;18.13;7.60;;;;;;;;;;5070086;28;20201;-81
2023/10/25 11:30:45;;;;;;;12.33;8.10;;;;;;;;;;5069116;28;20250;-83
2023/10/25 11:33:13;;;;;;;15.30;6.43;;;;;;;;;;5071535;28;20197;-83
2023/10/25 11:35:42;;;;;;;14.20;8.40;;;;;;;;;;5070954;28;20680;-78
2023/10/25 11:38:10;;;;;;;17.03;8.87;;;;;;;;;;5050627;28;20204;-80
2023/10/25 11:40:39;;;;;;;20.53;10.53;;;;;;;;;;5061429;28;20205;-77
2023/10/25 11:43:06;;;;;;;25.57;12.73;;;;;;;;;;5052051;28;20233;-81
2023/10/25 11:45:36;;;;;;;16.87;10.57;;;;;;;;;;5052428;28;20221;-78
2023/10/25 11:48:03;;;;;;;18.00;10.50;;;;;;;;;;5055995;28;20233;-76
2023/10/25 11:50:30;;;;;;;21.40;9.63;;;;;;;;;;5060978;28;20224;-81
2023/10/25 11:52:58;;;;;;;21.20;11.97;;;;;;;;;;5052296;28;20578;-76
2023/10/25 11:55:25;;;;;;;22.03;9.10;;;;;;;;;;5062257;28;20232;-75
2023/10/25 11:57:52;;;;;;;29.57;8.30;;;;;;;;;;5069930;28;20208;-75
2023/10/25 12:00:19;;;;;;;30.10;17.67;;;;;;;;;;5071310;28;20216;-81
2023/10/25 12:02:48;;;;;;;30.93;18.43;;;;;;;;;;5065378;28;20234;-76
2023/10/25 12:05:14;;;;;;;31.07;19.07;;;;;;;;;;5066996;28;20209;-79
2023/10/25 12:07:41;;;;;;;33.87;18.53;;;;;;;;;;5059484;28;20213;-76
2023/10/25 12:10:09;;;;;;;28.63;17.47;;;;;;;;;;5067155;28;20207;-76
2023/10/25 12:12:38;;;;;;;36.60;19.83;;;;;;;;;;5071408;28;20278;-77
2023/10/25 12:15:07;;;;;;;30.20;19.63;;;;;;;;;;5070827;28;20200;-77
2023/10/25 12:17:34;;;;;;;32.77;21.13;;;;;;;;;;5070172;28;20262;-76
2023/10/25 12:20:03;;;;;;;38.30;19.30;;;;;;;;;;5066472;28;20202;-78
2023/10/25 12:22:29;;;;;;;29.93;19.53;;;;;;;;;;5062219;28;20236;-78
2023/10/25 12:24:57;;;;;;;33.10;20.97;;;;;;;;;;5070496;28;20671;-76
2023/10/25 12:27:24;;;;;;;31.50;19.57;;;;;;;;;;5069298;28;20204;-79
2023/10/25 12:29:51;;;;;;;32.03;19.33;;;;;;;;;;5065636;28;20201;-77
2023/10/25 12:32:21;;;;;;;31.33;19.33;;;;;;;;;;5050851;28;20201;-76
2023/10/25 12:34:48;;;;;;;34.57;17.47;;;;;;;;;;5053814;28;20212;-78
2023/10/25 12:37:16;;;;;;;29.90;17.73;;;;;;;;;;5070545;28;20209;-76
2023/10/25 12:39:43;;;;;;;25.33;17.40;;;;;;;;;;5069958;28;20210;-81
2023/10/25 12:42:10;;;;;;;28.53;18.17;;;;;;;;;;5070612;28;20730;-78
2023/10/25 12:44:37;;;;;;;24.00;16.60;;;;;;;;;;5067012;28;20807;-77
2023/10/25 12:47:04;;;;;;;25.07;16.40;;;;;;;;;;5070187;28;20223;-81
2023/10/25 12:49:31;;;;;;;23.53;16.70;;;;;;;;;;5070061;28;20679;-75
2023/10/25 12:51:58;;;;;;;32.80;19.50;;;;;;;;;;5070864;28;20212;-76
2023/10/25 12:54:26;;;;;;;34.53;18.27;;;;;;;;;;5070212;28;20291;-75
2023/10/25 12:56:53;;;;;;;23.97;19.10;;;;;;;;;;5069950;28;20447;-75
2023/10/25 12:59:20;;;;;;;33.37;19.70;;;;;;;;;;5069953;28;20201;-75
2023/10/25 13:01:50;;;;;;;27.87;18.83;;;;;;;;;;5070570;28;20220;-75
2023/10/25 13:04:17;;;;;;;32.50;19.67;;;;;;;;;;5065549;28;20241;-76
2023/10/25 13:06:44;;;;;;;30.83;17.40;;;;;;;;;;5060971;28;20209;-76
2023/10/25 13:09:12;;;;;;;27.07;18.03;;;;;;;;;;5066390;28;20213;-78
2023/10/25 13:11:40;;;;;;;30.67;20.00;;;;;;;;;;5069484;28;20206;-83
2023/10/25 13:14:07;;;;;;;32.97;19.37;;;;;;;;;;5070488;28;20306;-80
2023/10/25 13:16:34;;;;;;;33.43;19.30;;;;;;;;;;5066427;28;20205;-81
2023/10/25 13:19:01;;;;;;;38.00;20.40;;;;;;;;;;5070221;28;20282;-79
2023/10/25 13:21:28;;;;;;;27.77;21.23;;;;;;;;;;5073574;28;20201;-78
2023/10/25 13:23:55;;;;;;;31.10;20.07;;;;;;;;;;5074127;28;20254;-79
2023/10/25 13:26:22;;;;;;;32.30;18.97;;;;;;;;;;5073833;28;20211;-78
2023/10/25 13:28:54;;;;;;;26.10;19.87;;;;;;;;;;5074107;28;20212;-78
2023/10/25 13:31:21;;;;;;;28.47;20.07;;;;;;;;;;5073961;28;20219;-78
2023/10/25 13:33:48;;;;;;;27.40;19.43;;;;;;;;;;5073820;28;20205;-77
2023/10/25 13:36:15;;;;;;;34.77;19.97;;;;;;;;;;5070639;28;20284;-81
2023/10/25 13:38:42;;;;;;;28.57;20.17;;;;;;;;;;5067494;28;20201;-78
2023/10/25 13:41:08;;;;;;;29.83;20.00;;;;;;;;;;5073358;28;20197;-79
2023/10/25 13:43:39;;;;;;;27.10;19.60;;;;;;;;;;5073714;28;20579;-80
2023/10/25 13:46:07;;;;;;;34.10;20.93;;;;;;;;;;5074133;28;20220;-79
2023/10/25 13:48:34;;;;;;;32.63;19.70;;;;;;;;;;5073546;28;20209;-81
2023/10/25 13:51:01;;;;;;;29.27;20.20;;;;;;;;;;5072100;28;20354;-79
2023/10/25 13:53:28;;;;;;;41.23;21.33;;;;;;;;;;5071449;28;20197;-78
2023/10/25 13:55:55;;;;;;;33.00;20.50;;;;;;;;;;5069432;28;20212;-78
2023/10/25 13:58:22;;;;;;;37.23;22.63;;;;;;;;;;5060834;28;20250;-78
2023/10/25 14:00:50;;;;;;;31.97;20.23;;;;;;;;;;5064801;28;20679;-77
2023/10/25 14:03:20;;;;;;;33.97;20.77;;;;;;;;;;5061418;28;20263;-78
2023/10/25 14:05:47;;;;;;;27.53;18.80;;;;;;;;;;5069480;28;20292;-88
2023/10/25 14:08:15;;;;;;;35.10;22.17;;;;;;;;;;5063706;28;20210;-78
2023/10/25 14:10:45;;;;;;;44.57;21.53;;;;;;;;;;5066882;28;20263;-79
2023/10/25 14:13:12;;;;;;;35.33;21.33;;;;;;;;;;5068691;28;20201;-77
2023/10/25 14:15:39;;;;;;;28.77;20.10;;;;;;;;;;5055962;28;20267;-78
2023/10/25 14:18:07;;;;;;;36.17;22.40;;;;;;;;;;5052121;28;20206;-84
2023/10/25 14:20:37;;;;;;;33.17;19.20;;;;;;;;;;5052497;28;20225;-81
2023/10/25 14:23:03;;;;;;;29.67;20.07;;;;;;;;;;5052860;28;20257;-83
2023/10/25 14:25:30;;;;;;;34.97;20.77;;;;;;;;;;5061217;28;20213;-85
2023/10/25 14:27:57;;;;;;;38.87;21.13;;;;;;;;;;5057323;28;20229;-81